sensor_id;sensor_type;location;lat;lon;timestamp;P1;durP1;ratioP1;P2;durP2;ratioP2
18780;SDS011;9519;51.890;8.970;2023-04-24T00:01:51;1.03;;;0.60;;
18780;SDS011;9519;51.890;8.970;2023-04-24T00:06:53;1.37;;;0.70;;
18780;SDS011;9519;51.890;8.970;2023-04-24T00:11:58;1.80;;;0.70;;
18780;SDS011;9519;51.890;8.970;2023-04-24T00:17:02;1.57;;;0.70;;
18780;SDS011;9519;51.890;8.970;2023-04-24T00:22:04;2.30;;;0.70;;
18780;SDS011;9519;51.890;8.970;2023-04-24T00:27:08;0.80;;;0.50;;
18780;SDS011;9519;51.890;8.970;2023-04-24T00:32:10;1.80;;;0.60;;
18780;SDS011;9519;51.890;8.970;2023-04-24T00:37:12;1.53;;;0.80;;
18780;SDS011;9519;51.890;8.970;2023-04-24T00:42:16;1.37;;;0.80;;
18780;SDS011;9519;51.890;8.970;2023-04-24T00:47:18;0.93;;;0.70;;
18780;SDS011;9519;51.890;8.970;2023-04-24T00:52:21;0.70;;;0.63;;
18780;SDS011;9519;51.890;8.970;2023-04-24T00:57:28;2.00;;;0.70;;
18780;SDS011;9519;51.890;8.970;2023-04-24T01:02:30;1.60;;;0.73;;
18780;SDS011;9519;51.890;8.970;2023-04-24T01:07:34;0.87;;;0.70;;
18780;SDS011;9519;51.890;8.970;2023-04-24T01:12:38;2.33;;;0.73;;
18780;SDS011;9519;51.890;8.970;2023-04-24T01:17:40;2.00;;;0.77;;
18780;SDS011;9519;51.890;8.970;2023-04-24T01:22:44;1.83;;;0.70;;
18780;SDS011;9519;51.890;8.970;2023-04-24T01:27:46;1.83;;;0.70;;
18780;SDS011;9519;51.890;8.970;2023-04-24T01:32:48;0.73;;;0.70;;
18780;SDS011;9519;51.890;8.970;2023-04-24T01:37:52;1.30;;;0.80;;
18780;SDS011;9519;51.890;8.970;2023-04-24T01:42:54;0.80;;;0.70;;
18780;SDS011;9519;51.890;8.970;2023-04-24T01:47:56;1.17;;;0.87;;
18780;SDS011;9519;51.890;8.970;2023-04-24T01:53:00;1.60;;;0.73;;
18780;SDS011;9519;51.890;8.970;2023-04-24T01:58:02;0.67;;;0.60;;
18780;SDS011;9519;51.890;8.970;2023-04-24T02:03:04;1.40;;;0.80;;
18780;SDS011;9519;51.890;8.970;2023-04-24T02:08:08;1.50;;;0.70;;
18780;SDS011;9519;51.890;8.970;2023-04-24T02:13:10;1.27;;;0.70;;
18780;SDS011;9519;51.890;8.970;2023-04-24T02:18:12;2.93;;;0.80;;
18780;SDS011;9519;51.890;8.970;2023-04-24T02:23:16;0.70;;;0.70;;
18780;SDS011;9519;51.890;8.970;2023-04-24T02:28:18;3.67;;;0.93;;
18780;SDS011;9519;51.890;8.970;2023-04-24T02:33:20;1.40;;;0.70;;
18780;SDS011;9519;51.890;8.970;2023-04-24T02:38:24;1.33;;;0.77;;
18780;SDS011;9519;51.890;8.970;2023-04-24T02:43:26;3.20;;;0.83;;
18780;SDS011;9519;51.890;8.970;2023-04-24T02:48:28;1.83;;;1.00;;
18780;SDS011;9519;51.890;8.970;2023-04-24T02:53:31;1.90;;;0.90;;
18780;SDS011;9519;51.890;8.970;2023-04-24T02:58:34;1.87;;;0.87;;
18780;SDS011;9519;51.890;8.970;2023-04-24T03:03:36;1.67;;;0.93;;
18780;SDS011;9519;51.890;8.970;2023-04-24T03:08:40;1.67;;;0.97;;
18780;SDS011;9519;51.890;8.970;2023-04-24T03:13:42;3.73;;;1.20;;
18780;SDS011;9519;51.890;8.970;2023-04-24T03:18:44;1.13;;;0.93;;
18780;SDS011;9519;51.890;8.970;2023-04-24T03:23:47;2.77;;;1.00;;
18780;SDS011;9519;51.890;8.970;2023-04-24T03:28:49;2.53;;;1.23;;
18780;SDS011;9519;51.890;8.970;2023-04-24T03:33:51;1.90;;;1.03;;
18780;SDS011;9519;51.890;8.970;2023-04-24T03:38:55;2.10;;;0.90;;
18780;SDS011;9519;51.890;8.970;2023-04-24T03:43:57;2.40;;;0.90;;
18780;SDS011;9519;51.890;8.970;2023-04-24T03:48:59;1.70;;;0.90;;
18780;SDS011;9519;51.890;8.970;2023-04-24T03:54:02;1.50;;;0.97;;
18780;SDS011;9519;51.890;8.970;2023-04-24T03:59:04;2.27;;;0.90;;
18780;SDS011;9519;51.890;8.970;2023-04-24T04:04:06;3.17;;;1.27;;
18780;SDS011;9519;51.890;8.970;2023-04-24T04:09:13;2.00;;;1.20;;
18780;SDS011;9519;51.890;8.970;2023-04-24T04:14:15;3.50;;;1.30;;
18780;SDS011;9519;51.890;8.970;2023-04-24T04:19:17;2.97;;;1.30;;
18780;SDS011;9519;51.890;8.970;2023-04-24T04:24:20;3.27;;;1.53;;
18780;SDS011;9519;51.890;8.970;2023-04-24T04:29:24;3.23;;;1.30;;
18780;SDS011;9519;51.890;8.970;2023-04-24T04:34:26;2.93;;;1.17;;
18780;SDS011;9519;51.890;8.970;2023-04-24T04:39:29;3.90;;;1.70;;
18780;SDS011;9519;51.890;8.970;2023-04-24T04:44:31;3.50;;;1.53;;
18780;SDS011;9519;51.890;8.970;2023-04-24T04:49:35;9.23;;;6.60;;
18780;SDS011;9519;51.890;8.970;2023-04-24T04:54:40;2.97;;;1.90;;
18780;SDS011;9519;51.890;8.970;2023-04-24T04:59:42;10.27;;;3.33;;
18780;SDS011;9519;51.890;8.970;2023-04-24T05:04:44;16.27;;;5.33;;
18780;SDS011;9519;51.890;8.970;2023-04-24T05:09:48;5.57;;;2.20;;
18780;SDS011;9519;51.890;8.970;2023-04-24T05:14:51;4.03;;;2.00;;
18780;SDS011;9519;51.890;8.970;2023-04-24T05:19:53;5.60;;;2.30;;
18780;SDS011;9519;51.890;8.970;2023-04-24T05:24:57;4.03;;;2.30;;
18780;SDS011;9519;51.890;8.970;2023-04-24T05:29:59;4.53;;;2.20;;
18780;SDS011;9519;51.890;8.970;2023-04-24T05:35:01;4.23;;;2.67;;
18780;SDS011;9519;51.890;8.970;2023-04-24T05:40:05;5.47;;;3.43;;
18780;SDS011;9519;51.890;8.970;2023-04-24T05:45:09;7.97;;;4.80;;
18780;SDS011;9519;51.890;8.970;2023-04-24T05:50:16;10.87;;;8.10;;
18780;SDS011;9519;51.890;8.970;2023-04-24T05:55:20;11.60;;;8.13;;
18780;SDS011;9519;51.890;8.970;2023-04-24T06:00:23;12.33;;;7.27;;
18780;SDS011;9519;51.890;8.970;2023-04-24T06:05:26;8.27;;;5.73;;
18780;SDS011;9519;51.890;8.970;2023-04-24T06:10:30;11.47;;;7.70;;
18780;SDS011;9519;51.890;8.970;2023-04-24T06:15:32;8.90;;;6.90;;
18780;SDS011;9519;51.890;8.970;2023-04-24T06:20:34;12.83;;;9.20;;
18780;SDS011;9519;51.890;8.970;2023-04-24T06:25:38;59.13;;;23.53;;
18780;SDS011;9519;51.890;8.970;2023-04-24T06:30:40;14.80;;;9.10;;
18780;SDS011;9519;51.890;8.970;2023-04-24T06:35:43;10.87;;;7.80;;
18780;SDS011;9519;51.890;8.970;2023-04-24T06:40:46;18.97;;;10.13;;
18780;SDS011;9519;51.890;8.970;2023-04-24T06:45:48;11.50;;;8.17;;
18780;SDS011;9519;51.890;8.970;2023-04-24T06:50:51;10.10;;;7.70;;
18780;SDS011;9519;51.890;8.970;2023-04-24T06:55:54;11.47;;;7.93;;
18780;SDS011;9519;51.890;8.970;2023-04-24T07:00:57;11.33;;;6.87;;
18780;SDS011;9519;51.890;8.970;2023-04-24T07:05:59;14.17;;;9.63;;
18780;SDS011;9519;51.890;8.970;2023-04-24T07:11:02;14.07;;;9.00;;
18780;SDS011;9519;51.890;8.970;2023-04-24T07:16:05;15.60;;;8.30;;
18780;SDS011;9519;51.890;8.970;2023-04-24T07:21:07;11.07;;;7.87;;
18780;SDS011;9519;51.890;8.970;2023-04-24T07:26:11;8.93;;;6.07;;
18780;SDS011;9519;51.890;8.970;2023-04-24T07:31:14;7.10;;;5.40;;
18780;SDS011;9519;51.890;8.970;2023-04-24T07:36:16;7.93;;;5.77;;
18780;SDS011;9519;51.890;8.970;2023-04-24T07:41:21;9.97;;;5.43;;
18780;SDS011;9519;51.890;8.970;2023-04-24T07:46:24;6.97;;;4.40;;
18780;SDS011;9519;51.890;8.970;2023-04-24T07:51:29;9.80;;;5.60;;
18780;SDS011;9519;51.890;8.970;2023-04-24T07:56:34;8.63;;;5.80;;
18780;SDS011;9519;51.890;8.970;2023-04-24T08:01:38;8.03;;;5.50;;
18780;SDS011;9519;51.890;8.970;2023-04-24T08:06:40;7.53;;;5.10;;
18780;SDS011;9519;51.890;8.970;2023-04-24T08:11:44;7.60;;;5.00;;
18780;SDS011;9519;51.890;8.970;2023-04-24T08:16:46;6.67;;;4.93;;
18780;SDS011;9519;51.890;8.970;2023-04-24T08:21:48;10.37;;;5.73;;
18780;SDS011;9519;51.890;8.970;2023-04-24T08:26:51;11.67;;;6.03;;
18780;SDS011;9519;51.890;8.970;2023-04-24T08:31:56;7.03;;;4.00;;
18780;SDS011;9519;51.890;8.970;2023-04-24T08:36:59;6.07;;;4.03;;
18780;SDS011;9519;51.890;8.970;2023-04-24T08:42:02;7.93;;;4.40;;
18780;SDS011;9519;51.890;8.970;2023-04-24T08:47:08;6.17;;;3.27;;
18780;SDS011;9519;51.890;8.970;2023-04-24T08:52:10;8.00;;;3.57;;
18780;SDS011;9519;51.890;8.970;2023-04-24T08:57:15;6.13;;;2.60;;
18780;SDS011;9519;51.890;8.970;2023-04-24T09:02:20;4.80;;;2.70;;
18780;SDS011;9519;51.890;8.970;2023-04-24T09:07:23;6.03;;;2.93;;
18780;SDS011;9519;51.890;8.970;2023-04-24T09:12:31;8.27;;;3.60;;
18780;SDS011;9519;51.890;8.970;2023-04-24T09:17:35;6.40;;;3.70;;
18780;SDS011;9519;51.890;8.970;2023-04-24T09:22:38;6.43;;;3.53;;
18780;SDS011;9519;51.890;8.970;2023-04-24T09:27:42;11.70;;;5.00;;
18780;SDS011;9519;51.890;8.970;2023-04-24T09:32:46;8.83;;;4.20;;
18780;SDS011;9519;51.890;8.970;2023-04-24T09:37:48;7.80;;;3.23;;
18780;SDS011;9519;51.890;8.970;2023-04-24T09:42:52;5.97;;;2.83;;
18780;SDS011;9519;51.890;8.970;2023-04-24T09:47:56;5.53;;;2.60;;
18780;SDS011;9519;51.890;8.970;2023-04-24T09:52:59;4.27;;;2.40;;
18780;SDS011;9519;51.890;8.970;2023-04-24T09:58:05;2.73;;;1.70;;
18780;SDS011;9519;51.890;8.970;2023-04-24T10:03:10;2.47;;;1.40;;
18780;SDS011;9519;51.890;8.970;2023-04-24T10:08:12;2.87;;;1.50;;
18780;SDS011;9519;51.890;8.970;2023-04-24T10:13:16;2.47;;;1.20;;
18780;SDS011;9519;51.890;8.970;2023-04-24T10:18:18;2.40;;;1.37;;
18780;SDS011;9519;51.890;8.970;2023-04-24T10:23:22;1.40;;;0.90;;
18780;SDS011;9519;51.890;8.970;2023-04-24T10:28:27;2.80;;;1.00;;
18780;SDS011;9519;51.890;8.970;2023-04-24T10:33:34;5.40;;;2.20;;
18780;SDS011;9519;51.890;8.970;2023-04-24T10:38:36;3.87;;;1.80;;
18780;SDS011;9519;51.890;8.970;2023-04-24T10:43:43;3.50;;;2.00;;
18780;SDS011;9519;51.890;8.970;2023-04-24T10:48:51;4.33;;;1.30;;
18780;SDS011;9519;51.890;8.970;2023-04-24T10:53:55;1.17;;;0.80;;
18780;SDS011;9519;51.890;8.970;2023-04-24T10:59:00;2.33;;;0.80;;
18780;SDS011;9519;51.890;8.970;2023-04-24T11:04:03;1.10;;;0.70;;
18780;SDS011;9519;51.890;8.970;2023-04-24T11:09:05;5.70;;;1.63;;
18780;SDS011;9519;51.890;8.970;2023-04-24T11:14:14;3.40;;;1.20;;
18780;SDS011;9519;51.890;8.970;2023-04-24T11:19:18;4.27;;;1.80;;
18780;SDS011;9519;51.890;8.970;2023-04-24T11:24:25;18.50;;;7.40;;
18780;SDS011;9519;51.890;8.970;2023-04-24T11:29:44;3.37;;;1.53;;
18780;SDS011;9519;51.890;8.970;2023-04-24T11:34:50;3.27;;;2.00;;
18780;SDS011;9519;51.890;8.970;2023-04-24T11:39:56;6.13;;;2.60;;
18780;SDS011;9519;51.890;8.970;2023-04-24T11:45:01;7.37;;;3.30;;
18780;SDS011;9519;51.890;8.970;2023-04-24T11:50:11;9.57;;;4.07;;
18780;SDS011;9519;51.890;8.970;2023-04-24T11:55:25;5.60;;;3.27;;
18780;SDS011;9519;51.890;8.970;2023-04-24T12:00:31;8.73;;;3.03;;
18780;SDS011;9519;51.890;8.970;2023-04-24T12:05:35;7.03;;;4.20;;
18780;SDS011;9519;51.890;8.970;2023-04-24T12:10:38;9.97;;;6.47;;
18780;SDS011;9519;51.890;8.970;2023-04-24T12:15:41;8.03;;;5.53;;
18780;SDS011;9519;51.890;8.970;2023-04-24T12:20:43;2.50;;;1.80;;
18780;SDS011;9519;51.890;8.970;2023-04-24T12:25:46;3.57;;;2.53;;
18780;SDS011;9519;51.890;8.970;2023-04-24T12:30:49;3.23;;;2.00;;
18780;SDS011;9519;51.890;8.970;2023-04-24T12:35:51;3.00;;;2.00;;
18780;SDS011;9519;51.890;8.970;2023-04-24T12:41:01;3.23;;;1.90;;
18780;SDS011;9519;51.890;8.970;2023-04-24T12:46:06;2.57;;;1.27;;
18780;SDS011;9519;51.890;8.970;2023-04-24T12:51:08;2.37;;;1.50;;
18780;SDS011;9519;51.890;8.970;2023-04-24T12:56:10;3.37;;;1.90;;
18780;SDS011;9519;51.890;8.970;2023-04-24T13:01:14;7.80;;;2.43;;
18780;SDS011;9519;51.890;8.970;2023-04-24T13:06:16;5.60;;;3.30;;
18780;SDS011;9519;51.890;8.970;2023-04-24T13:11:18;4.40;;;2.90;;
18780;SDS011;9519;51.890;8.970;2023-04-24T13:16:23;6.10;;;3.00;;
18780;SDS011;9519;51.890;8.970;2023-04-24T13:21:25;6.07;;;3.07;;
18780;SDS011;9519;51.890;8.970;2023-04-24T13:26:27;7.20;;;3.70;;
18780;SDS011;9519;51.890;8.970;2023-04-24T13:31:31;8.07;;;4.17;;
18780;SDS011;9519;51.890;8.970;2023-04-24T13:36:33;6.63;;;3.37;;
18780;SDS011;9519;51.890;8.970;2023-04-24T13:41:35;5.13;;;3.30;;
18780;SDS011;9519;51.890;8.970;2023-04-24T13:46:39;9.83;;;4.93;;
18780;SDS011;9519;51.890;8.970;2023-04-24T13:51:42;8.93;;;4.70;;
18780;SDS011;9519;51.890;8.970;2023-04-24T13:56:45;11.40;;;5.70;;
18780;SDS011;9519;51.890;8.970;2023-04-24T14:01:49;16.00;;;8.40;;
18780;SDS011;9519;51.890;8.970;2023-04-24T14:06:51;12.83;;;8.27;;
18780;SDS011;9519;51.890;8.970;2023-04-24T14:11:53;13.90;;;8.57;;
18780;SDS011;9519;51.890;8.970;2023-04-24T14:16:57;17.47;;;8.23;;
18780;SDS011;9519;51.890;8.970;2023-04-24T14:21:59;17.47;;;9.17;;
18780;SDS011;9519;51.890;8.970;2023-04-24T14:27:02;17.27;;;7.90;;
18780;SDS011;9519;51.890;8.970;2023-04-24T14:32:05;14.93;;;9.17;;
18780;SDS011;9519;51.890;8.970;2023-04-24T14:37:09;25.27;;;14.00;;
18780;SDS011;9519;51.890;8.970;2023-04-24T14:42:11;17.33;;;9.77;;
18780;SDS011;9519;51.890;8.970;2023-04-24T14:47:15;19.80;;;9.13;;
18780;SDS011;9519;51.890;8.970;2023-04-24T14:52:21;11.20;;;7.03;;
18780;SDS011;9519;51.890;8.970;2023-04-24T14:57:23;17.97;;;7.73;;
18780;SDS011;9519;51.890;8.970;2023-04-24T15:02:27;17.90;;;9.63;;
18780;SDS011;9519;51.890;8.970;2023-04-24T15:07:29;13.30;;;8.50;;
18780;SDS011;9519;51.890;8.970;2023-04-24T15:12:31;16.97;;;8.97;;
18780;SDS011;9519;51.890;8.970;2023-04-24T15:17:35;23.53;;;12.10;;
18780;SDS011;9519;51.890;8.970;2023-04-24T15:22:37;13.10;;;7.53;;
18780;SDS011;9519;51.890;8.970;2023-04-24T15:27:40;15.93;;;7.23;;
18780;SDS011;9519;51.890;8.970;2023-04-24T15:32:45;10.33;;;5.07;;
18780;SDS011;9519;51.890;8.970;2023-04-24T15:37:47;13.03;;;5.73;;
18780;SDS011;9519;51.890;8.970;2023-04-24T15:42:49;10.13;;;5.80;;
18780;SDS011;9519;51.890;8.970;2023-04-24T15:47:53;10.57;;;4.53;;
18780;SDS011;9519;51.890;8.970;2023-04-24T15:52:56;8.27;;;3.83;;
18780;SDS011;9519;51.890;8.970;2023-04-24T15:57:58;9.03;;;4.27;;
18780;SDS011;9519;51.890;8.970;2023-04-24T16:03:02;9.13;;;4.87;;
18780;SDS011;9519;51.890;8.970;2023-04-24T16:08:08;8.77;;;4.60;;
18780;SDS011;9519;51.890;8.970;2023-04-24T16:13:10;10.40;;;5.03;;
18780;SDS011;9519;51.890;8.970;2023-04-24T16:18:15;8.83;;;4.40;;
18780;SDS011;9519;51.890;8.970;2023-04-24T16:23:17;8.10;;;4.20;;
18780;SDS011;9519;51.890;8.970;2023-04-24T16:28:19;8.37;;;4.40;;
18780;SDS011;9519;51.890;8.970;2023-04-24T16:33:24;8.63;;;4.67;;
18780;SDS011;9519;51.890;8.970;2023-04-24T16:38:26;6.57;;;4.00;;
18780;SDS011;9519;51.890;8.970;2023-04-24T16:43:28;6.63;;;3.50;;
18780;SDS011;9519;51.890;8.970;2023-04-24T16:48:32;9.30;;;4.37;;
18780;SDS011;9519;51.890;8.970;2023-04-24T16:53:34;8.70;;;3.80;;
18780;SDS011;9519;51.890;8.970;2023-04-24T16:58:36;8.97;;;3.50;;
18780;SDS011;9519;51.890;8.970;2023-04-24T17:03:40;9.83;;;5.37;;
18780;SDS011;9519;51.890;8.970;2023-04-24T17:08:42;14.73;;;9.53;;
18780;SDS011;9519;51.890;8.970;2023-04-24T17:13:44;9.57;;;3.80;;
18780;SDS011;9519;51.890;8.970;2023-04-24T17:18:48;12.33;;;3.60;;
18780;SDS011;9519;51.890;8.970;2023-04-24T17:23:51;6.47;;;3.50;;
18780;SDS011;9519;51.890;8.970;2023-04-24T17:28:53;9.33;;;4.70;;
18780;SDS011;9519;51.890;8.970;2023-04-24T17:33:57;7.43;;;2.47;;
18780;SDS011;9519;51.890;8.970;2023-04-24T17:38:59;8.17;;;2.83;;
18780;SDS011;9519;51.890;8.970;2023-04-24T17:44:05;8.97;;;3.23;;
18780;SDS011;9519;51.890;8.970;2023-04-24T17:49:09;7.10;;;2.30;;
18780;SDS011;9519;51.890;8.970;2023-04-24T17:54:11;7.47;;;3.07;;
18780;SDS011;9519;51.890;8.970;2023-04-24T17:59:13;8.60;;;3.73;;
18780;SDS011;9519;51.890;8.970;2023-04-24T18:04:17;7.57;;;3.43;;
18780;SDS011;9519;51.890;8.970;2023-04-24T18:09:19;8.83;;;3.57;;
18780;SDS011;9519;51.890;8.970;2023-04-24T18:14:21;8.27;;;3.60;;
18780;SDS011;9519;51.890;8.970;2023-04-24T18:19:27;7.17;;;3.30;;
18780;SDS011;9519;51.890;8.970;2023-04-24T18:24:29;8.63;;;3.50;;
18780;SDS011;9519;51.890;8.970;2023-04-24T18:29:31;9.77;;;3.87;;
18780;SDS011;9519;51.890;8.970;2023-04-24T18:34:36;11.40;;;3.60;;
18780;SDS011;9519;51.890;8.970;2023-04-24T18:39:38;10.80;;;4.20;;
18780;SDS011;9519;51.890;8.970;2023-04-24T18:44:40;11.30;;;4.50;;
18780;SDS011;9519;51.890;8.970;2023-04-24T18:49:44;10.50;;;4.17;;
18780;SDS011;9519;51.890;8.970;2023-04-24T18:54:46;14.53;;;5.23;;
18780;SDS011;9519;51.890;8.970;2023-04-24T18:59:48;11.33;;;4.07;;
18780;SDS011;9519;51.890;8.970;2023-04-24T19:04:51;13.33;;;5.20;;
18780;SDS011;9519;51.890;8.970;2023-04-24T19:09:54;7.87;;;3.47;;
18780;SDS011;9519;51.890;8.970;2023-04-24T19:14:56;9.87;;;3.83;;
18780;SDS011;9519;51.890;8.970;2023-04-24T19:20:00;11.27;;;4.00;;
18780;SDS011;9519;51.890;8.970;2023-04-24T19:25:02;10.73;;;3.97;;
18780;SDS011;9519;51.890;8.970;2023-04-24T19:30:06;11.40;;;4.77;;
18780;SDS011;9519;51.890;8.970;2023-04-24T19:35:10;9.30;;;4.23;;
18780;SDS011;9519;51.890;8.970;2023-04-24T19:40:12;6.40;;;3.60;;
18780;SDS011;9519;51.890;8.970;2023-04-24T19:45:15;11.43;;;3.97;;
18780;SDS011;9519;51.890;8.970;2023-04-24T19:50:18;8.47;;;3.93;;
18780;SDS011;9519;51.890;8.970;2023-04-24T19:55:20;10.17;;;5.13;;
18780;SDS011;9519;51.890;8.970;2023-04-24T20:00:22;11.27;;;4.70;;
18780;SDS011;9519;51.890;8.970;2023-04-24T20:05:26;13.77;;;5.23;;
18780;SDS011;9519;51.890;8.970;2023-04-24T20:10:28;9.87;;;3.90;;
18780;SDS011;9519;51.890;8.970;2023-04-24T20:15:32;13.20;;;4.13;;
18780;SDS011;9519;51.890;8.970;2023-04-24T20:20:36;10.50;;;4.03;;
18780;SDS011;9519;51.890;8.970;2023-04-24T20:25:40;13.57;;;4.83;;
18780;SDS011;9519;51.890;8.970;2023-04-24T20:30:42;12.63;;;5.00;;
18780;SDS011;9519;51.890;8.970;2023-04-24T20:35:46;13.73;;;5.00;;
18780;SDS011;9519;51.890;8.970;2023-04-24T20:40:49;12.17;;;4.63;;
18780;SDS011;9519;51.890;8.970;2023-04-24T20:45:51;10.33;;;4.57;;
18780;SDS011;9519;51.890;8.970;2023-04-24T20:50:54;14.40;;;4.33;;
18780;SDS011;9519;51.890;8.970;2023-04-24T20:55:57;14.57;;;5.00;;
18780;SDS011;9519;51.890;8.970;2023-04-24T21:00:59;12.70;;;4.57;;
18780;SDS011;9519;51.890;8.970;2023-04-24T21:06:03;14.03;;;4.83;;
18780;SDS011;9519;51.890;8.970;2023-04-24T21:11:05;10.20;;;5.00;;
18780;SDS011;9519;51.890;8.970;2023-04-24T21:16:07;14.30;;;5.43;;
18780;SDS011;9519;51.890;8.970;2023-04-24T21:21:11;16.73;;;5.40;;
18780;SDS011;9519;51.890;8.970;2023-04-24T21:26:13;15.70;;;5.40;;
18780;SDS011;9519;51.890;8.970;2023-04-24T21:31:16;22.07;;;8.57;;
18780;SDS011;9519;51.890;8.970;2023-04-24T21:36:19;25.27;;;12.17;;
18780;SDS011;9519;51.890;8.970;2023-04-24T21:41:21;19.80;;;8.23;;
18780;SDS011;9519;51.890;8.970;2023-04-24T21:46:24;13.70;;;6.60;;
18780;SDS011;9519;51.890;8.970;2023-04-24T21:51:28;20.90;;;9.37;;
18780;SDS011;9519;51.890;8.970;2023-04-24T21:56:31;20.40;;;10.13;;
18780;SDS011;9519;51.890;8.970;2023-04-24T22:01:33;16.67;;;7.83;;
18780;SDS011;9519;51.890;8.970;2023-04-24T22:06:37;21.80;;;10.93;;
18780;SDS011;9519;51.890;8.970;2023-04-24T22:11:39;19.03;;;10.77;;
18780;SDS011;9519;51.890;8.970;2023-04-24T22:16:41;20.23;;;10.63;;
18780;SDS011;9519;51.890;8.970;2023-04-24T22:21:46;22.73;;;8.53;;
18780;SDS011;9519;51.890;8.970;2023-04-24T22:26:48;21.63;;;9.93;;
18780;SDS011;9519;51.890;8.970;2023-04-24T22:31:50;16.93;;;7.80;;
18780;SDS011;9519;51.890;8.970;2023-04-24T22:36:56;17.77;;;9.37;;
18780;SDS011;9519;51.890;8.970;2023-04-24T22:41:59;18.17;;;9.00;;
18780;SDS011;9519;51.890;8.970;2023-04-24T22:47:02;18.40;;;8.73;;
18780;SDS011;9519;51.890;8.970;2023-04-24T22:52:08;21.33;;;9.57;;
18780;SDS011;9519;51.890;8.970;2023-04-24T22:57:13;21.37;;;9.23;;
18780;SDS011;9519;51.890;8.970;2023-04-24T23:02:15;27.33;;;12.83;;
18780;SDS011;9519;51.890;8.970;2023-04-24T23:07:19;17.83;;;8.50;;
18780;SDS011;9519;51.890;8.970;2023-04-24T23:12:21;24.57;;;8.77;;
18780;SDS011;9519;51.890;8.970;2023-04-24T23:17:23;16.87;;;8.67;;
18780;SDS011;9519;51.890;8.970;2023-04-24T23:22:27;22.00;;;10.20;;
18780;SDS011;9519;51.890;8.970;2023-04-24T23:27:29;24.80;;;12.27;;
18780;SDS011;9519;51.890;8.970;2023-04-24T23:32:31;22.13;;;9.20;;
18780;SDS011;9519;51.890;8.970;2023-04-24T23:37:35;28.20;;;12.63;;
18780;SDS011;9519;51.890;8.970;2023-04-24T23:42:37;17.47;;;8.07;;
18780;SDS011;9519;51.890;8.970;2023-04-24T23:47:39;17.67;;;8.43;;
18780;SDS011;9519;51.890;8.970;2023-04-24T23:52:42;20.70;;;8.47;;
18780;SDS011;9519;51.890;8.970;2023-04-24T23:57:44;22.83;;;10.93;;
